createdAt,value
2017-03-31T00:01:14.050Z,1017.28
2017-03-31T00:02:10.703Z,1017.3
2017-03-31T00:03:10.640Z,1017.27
2017-03-31T00:04:10.578Z,1017.29
2017-03-31T00:05:10.516Z,1017.25
2017-03-31T00:06:10.455Z,1017.23
2017-03-31T00:07:10.393Z,1017.21
2017-03-31T00:08:10.331Z,1017.22
2017-03-31T00:09:10.269Z,1017.21
2017-03-31T00:10:10.212Z,1017.23
2017-03-31T00:11:10.146Z,1017.21
2017-03-31T00:12:10.085Z,1017.23
2017-03-31T00:13:10.022Z,1017.2
2017-03-31T00:14:09.961Z,1017.2
2017-03-31T00:15:09.899Z,1017.21
2017-03-31T00:16:09.836Z,1017.16
2017-03-31T00:17:09.775Z,1017.16
2017-03-31T00:18:09.713Z,1017.14
2017-03-31T00:19:09.652Z,1017.16
2017-03-31T00:20:09.591Z,1017.16
2017-03-31T00:21:09.529Z,1017.11
2017-03-31T00:22:09.467Z,1017.17
2017-03-31T00:23:09.405Z,1017.14
2017-03-31T00:24:09.342Z,1017.14
2017-03-31T00:25:09.281Z,1017.11
2017-03-31T00:26:09.219Z,1017.09
2017-03-31T00:27:09.157Z,1017.07
2017-03-31T00:28:09.095Z,1017.07
2017-03-31T00:29:09.034Z,1017.08
2017-03-31T00:30:08.972Z,1017.08
2017-03-31T00:31:08.911Z,1017.06
2017-03-31T00:32:08.848Z,1017.09
2017-03-31T00:33:08.786Z,1017.1
2017-03-31T00:34:08.724Z,1017.05
2017-03-31T00:35:08.663Z,1017.04
2017-03-31T00:36:08.601Z,1017
2017-03-31T00:37:08.539Z,1017.03
2017-03-31T00:38:08.477Z,1017.01
2017-03-31T00:39:08.420Z,1016.98
2017-03-31T00:40:08.354Z,1017.01
2017-03-31T00:41:08.291Z,1016.99
2017-03-31T00:42:08.230Z,1017.01
2017-03-31T00:43:08.169Z,1016.91
2017-03-31T00:44:08.106Z,1016.92
2017-03-31T00:45:08.047Z,1016.94
2017-03-31T00:46:07.984Z,1016.88
2017-03-31T00:47:07.922Z,1016.9
2017-03-31T00:48:07.860Z,1016.91
2017-03-31T00:49:07.813Z,1016.89
2017-03-31T00:50:07.736Z,1016.91
2017-03-31T00:51:07.675Z,1016.85
2017-03-31T00:52:07.612Z,1016.85
2017-03-31T00:53:07.550Z,1016.85
2017-03-31T00:54:07.489Z,1016.87
2017-03-31T00:55:07.426Z,1016.84
2017-03-31T00:56:07.367Z,1016.82
2017-03-31T00:57:07.303Z,1016.79
2017-03-31T00:58:07.241Z,1016.76
2017-03-31T00:59:07.179Z,1016.76
2017-03-31T01:00:07.118Z,1016.76
2017-03-31T01:01:07.056Z,1016.74
2017-03-31T01:02:06.995Z,1016.7
2017-03-31T01:03:06.932Z,1016.7
2017-03-31T01:04:06.872Z,1016.65
2017-03-31T01:05:06.809Z,1016.66
2017-03-31T01:06:06.747Z,1016.65
2017-03-31T01:07:06.686Z,1016.67
2017-03-31T01:08:06.624Z,1016.67
2017-03-31T01:09:06.563Z,1016.65
2017-03-31T01:10:06.499Z,1016.61
2017-03-31T01:11:06.438Z,1016.63
2017-03-31T01:12:06.377Z,1016.6
2017-03-31T01:13:06.316Z,1016.59
2017-03-31T01:14:06.253Z,1016.64
2017-03-31T01:15:06.193Z,1016.61
2017-03-31T01:16:06.129Z,1016.62
2017-03-31T01:17:06.095Z,1016.61
2017-03-31T01:18:06.005Z,1016.62
2017-03-31T01:19:05.944Z,1016.6
2017-03-31T01:20:05.882Z,1016.56
2017-03-31T01:21:05.819Z,1016.59
2017-03-31T01:22:05.793Z,1016.6
2017-03-31T01:23:05.697Z,1016.6
2017-03-31T01:24:05.635Z,1016.58
2017-03-31T01:25:05.573Z,1016.56
2017-03-31T01:26:05.515Z,1016.54
2017-03-31T01:27:05.449Z,1016.56
2017-03-31T01:28:05.387Z,1016.52
2017-03-31T01:29:05.326Z,1016.53
2017-03-31T01:30:05.264Z,1016.49
2017-03-31T01:31:05.203Z,1016.49
2017-03-31T01:32:05.139Z,1016.48
2017-03-31T01:33:05.078Z,1016.49
2017-03-31T01:34:05.017Z,1016.47
2017-03-31T01:35:04.955Z,1016.44
2017-03-31T01:36:04.894Z,1016.49
2017-03-31T01:37:04.832Z,1016.47
2017-03-31T01:38:04.770Z,1016.45
2017-03-31T01:39:04.707Z,1016.43
2017-03-31T01:40:04.646Z,1016.43
2017-03-31T01:41:04.585Z,1016.36
2017-03-31T01:42:04.523Z,1016.36
2017-03-31T01:43:04.461Z,1016.35
2017-03-31T01:44:04.399Z,1016.36
2017-03-31T01:45:04.338Z,1016.33
2017-03-31T01:46:04.275Z,1016.28
2017-03-31T01:47:04.214Z,1016.32
2017-03-31T01:48:04.152Z,1016.31
2017-03-31T01:49:04.090Z,1016.32
2017-03-31T01:50:04.028Z,1016.27
2017-03-31T01:51:03.967Z,1016.3
2017-03-31T01:52:03.906Z,1016.28
2017-03-31T01:53:03.843Z,1016.27
2017-03-31T01:54:03.781Z,1016.25
2017-03-31T01:55:03.720Z,1016.23
2017-03-31T01:56:03.658Z,1016.22
2017-03-31T01:57:03.596Z,1016.24
2017-03-31T01:58:03.533Z,1016.22
2017-03-31T01:59:03.481Z,1016.2
2017-03-31T02:00:03.412Z,1016.23
2017-03-31T02:01:03.349Z,1016.16
2017-03-31T02:02:03.291Z,1016.2
2017-03-31T02:03:03.225Z,1016.17
2017-03-31T02:04:03.164Z,1016.16
2017-03-31T02:05:03.101Z,1016.17
2017-03-31T02:06:03.040Z,1016.15
2017-03-31T02:07:02.979Z,1016.18
2017-03-31T02:08:02.915Z,1016.16
2017-03-31T02:09:02.854Z,1016.11
2017-03-31T02:10:02.794Z,1016.08
2017-03-31T02:11:02.731Z,1016.07
2017-03-31T02:12:02.668Z,1016.08
2017-03-31T02:13:02.617Z,1016.11
2017-03-31T02:14:02.545Z,1016.11
2017-03-31T02:15:02.484Z,1016.08
2017-03-31T02:16:02.421Z,1016.06
2017-03-31T02:17:02.360Z,1016.09
2017-03-31T02:18:02.307Z,1016.1
2017-03-31T02:19:02.236Z,1016.06
2017-03-31T02:20:02.174Z,1016.04
2017-03-31T02:21:02.113Z,1016.07
2017-03-31T02:22:02.060Z,1016.03
2017-03-31T02:23:01.988Z,1016.06
2017-03-31T02:24:01.936Z,1016.07
2017-03-31T02:25:01.865Z,1016.06
2017-03-31T02:26:01.804Z,1016.06
2017-03-31T02:27:01.741Z,1016.08
2017-03-31T02:28:01.688Z,1016.04
2017-03-31T02:29:01.618Z,1016.01
2017-03-31T02:30:01.556Z,1016
2017-03-31T02:31:01.494Z,1015.98
2017-03-31T02:32:01.439Z,1015.97
2017-03-31T02:33:01.379Z,1015.97
2017-03-31T02:34:01.308Z,1015.92
2017-03-31T02:35:01.247Z,1015.92
2017-03-31T02:36:01.185Z,1015.93
2017-03-31T02:37:01.124Z,1015.94
2017-03-31T02:38:01.061Z,1015.91
2017-03-31T02:39:00.999Z,1015.86
2017-03-31T02:40:00.937Z,1015.88
2017-03-31T02:41:00.874Z,1015.89
2017-03-31T02:42:00.813Z,1015.87
2017-03-31T02:43:00.833Z,1015.88
2017-03-31T02:44:00.690Z,1015.92
2017-03-31T02:45:00.627Z,1015.84
2017-03-31T02:46:00.568Z,1015.85
2017-03-31T02:47:00.505Z,1015.87
2017-03-31T02:48:00.444Z,1015.85
2017-03-31T02:49:00.381Z,1015.84
2017-03-31T02:50:00.319Z,1015.84
2017-03-31T02:51:00.257Z,1015.81
2017-03-31T02:52:00.195Z,1015.83
2017-03-31T02:53:00.133Z,1015.8
2017-03-31T02:54:00.072Z,1015.8
2017-03-31T02:55:00.011Z,1015.76
2017-03-31T02:55:59.948Z,1015.77
2017-03-31T02:56:59.886Z,1015.75
2017-03-31T02:57:59.824Z,1015.76
2017-03-31T02:58:59.763Z,1015.75
2017-03-31T02:59:59.699Z,1015.74
2017-03-31T03:00:59.639Z,1015.73
2017-03-31T03:01:59.577Z,1015.69
2017-03-31T03:02:59.514Z,1015.72
2017-03-31T03:03:59.452Z,1015.7
2017-03-31T03:04:59.513Z,1015.68
2017-03-31T03:05:59.329Z,1015.69
2017-03-31T03:06:59.266Z,1015.71
2017-03-31T03:07:59.205Z,1015.7
2017-03-31T03:08:59.143Z,1015.71
2017-03-31T03:09:59.082Z,1015.73
2017-03-31T03:10:59.020Z,1015.74
2017-03-31T03:11:58.959Z,1015.74
2017-03-31T03:12:58.897Z,1015.73
2017-03-31T03:13:58.835Z,1015.76
2017-03-31T03:14:58.774Z,1015.73
2017-03-31T03:15:58.712Z,1015.74
2017-03-31T03:16:58.652Z,1015.76
2017-03-31T03:17:58.587Z,1015.75
2017-03-31T03:18:58.526Z,1015.73
2017-03-31T03:19:58.464Z,1015.73
2017-03-31T03:20:58.404Z,1015.68
2017-03-31T03:21:58.340Z,1015.66
2017-03-31T03:22:58.279Z,1015.71
2017-03-31T03:23:58.217Z,1015.7
2017-03-31T03:24:58.154Z,1015.7
2017-03-31T03:25:58.093Z,1015.66
2017-03-31T03:26:58.032Z,1015.67
2017-03-31T03:27:57.968Z,1015.64
2017-03-31T03:28:57.907Z,1015.64
2017-03-31T03:29:57.845Z,1015.64
2017-03-31T03:30:57.783Z,1015.62
2017-03-31T03:31:57.720Z,1015.61
2017-03-31T03:32:57.659Z,1015.58
2017-03-31T03:33:57.598Z,1015.56
2017-03-31T03:34:57.539Z,1015.61
2017-03-31T03:35:57.473Z,1015.55
2017-03-31T03:36:57.412Z,1015.55
2017-03-31T03:37:57.350Z,1015.53
2017-03-31T03:38:57.289Z,1015.52
2017-03-31T03:39:57.227Z,1015.51
2017-03-31T03:40:57.164Z,1015.49
2017-03-31T03:41:57.103Z,1015.54
2017-03-31T03:42:57.041Z,1015.51
2017-03-31T03:43:56.979Z,1015.48
2017-03-31T03:44:56.920Z,1015.47
2017-03-31T03:45:56.856Z,1015.44
2017-03-31T03:46:56.793Z,1015.45
2017-03-31T03:47:56.732Z,1015.42
2017-03-31T03:48:56.671Z,1015.43
2017-03-31T03:49:56.608Z,1015.43
2017-03-31T03:50:56.551Z,1015.41
2017-03-31T03:51:56.484Z,1015.39
2017-03-31T03:52:56.424Z,1015.44
2017-03-31T03:53:56.360Z,1015.4
2017-03-31T03:54:56.302Z,1015.41
2017-03-31T03:55:56.237Z,1015.39
2017-03-31T03:56:56.175Z,1015.37
2017-03-31T03:57:56.114Z,1015.35
2017-03-31T03:58:56.063Z,1015.32
2017-03-31T03:59:55.989Z,1015.36
2017-03-31T04:00:55.928Z,1015.32
2017-03-31T04:01:55.865Z,1015.48
2017-03-31T04:02:55.804Z,1015.46
2017-03-31T04:03:55.742Z,1015.32
2017-03-31T04:04:55.770Z,1015.32
2017-03-31T04:05:55.618Z,1015.33
2017-03-31T04:06:55.555Z,1015.33
2017-03-31T04:07:55.495Z,1015.3
2017-03-31T04:08:55.432Z,1015.31
2017-03-31T04:09:55.371Z,1015.3
2017-03-31T04:10:55.309Z,1015.27
2017-03-31T04:11:55.247Z,1015.31
2017-03-31T04:12:55.185Z,1015.29
2017-03-31T04:13:55.139Z,1015.3
2017-03-31T04:14:55.061Z,1015.3
2017-03-31T04:15:55.000Z,1015.3
2017-03-31T04:16:54.937Z,1015.3
2017-03-31T04:17:54.875Z,1015.31
2017-03-31T04:18:54.847Z,1015.31
2017-03-31T04:19:54.751Z,1015.27
2017-03-31T04:20:54.689Z,1015.32
2017-03-31T04:21:54.627Z,1015.29
2017-03-31T04:22:54.567Z,1015.3
2017-03-31T04:23:54.503Z,1015.29
2017-03-31T04:24:54.442Z,1015.32
2017-03-31T04:25:54.381Z,1015.35
2017-03-31T04:26:54.318Z,1015.33
2017-03-31T04:27:54.256Z,1015.31
2017-03-31T04:28:54.193Z,1015.32
2017-03-31T04:29:54.132Z,1015.32
2017-03-31T04:30:54.070Z,1015.32
2017-03-31T04:31:54.008Z,1015.32
2017-03-31T04:32:53.946Z,1015.34
2017-03-31T04:33:53.885Z,1015.3
2017-03-31T04:34:53.822Z,1015.31
2017-03-31T04:35:53.760Z,1015.29
2017-03-31T04:36:53.699Z,1015.27
2017-03-31T04:37:53.636Z,1015.26
2017-03-31T04:38:53.575Z,1015.28
2017-03-31T04:39:53.513Z,1015.28
2017-03-31T04:40:53.451Z,1015.29
2017-03-31T04:41:53.389Z,1015.31
2017-03-31T04:42:53.411Z,1015.27
2017-03-31T04:43:53.266Z,1015.29
2017-03-31T04:44:53.204Z,1015.29
2017-03-31T04:45:53.142Z,1015.3
2017-03-31T04:46:53.081Z,1015.3
2017-03-31T04:47:53.019Z,1015.26
2017-03-31T04:48:52.956Z,1015.27
2017-03-31T04:49:52.894Z,1015.29
2017-03-31T04:50:52.832Z,1015.41
2017-03-31T04:51:52.771Z,1015.33
2017-03-31T04:52:52.720Z,1015.23
2017-03-31T04:53:52.646Z,1015.28
2017-03-31T04:54:52.585Z,1015.25
2017-03-31T04:55:52.523Z,1015.28
2017-03-31T04:56:52.461Z,1015.24
2017-03-31T04:57:52.398Z,1015.24
2017-03-31T04:58:52.337Z,1015.25
2017-03-31T04:59:52.274Z,1015.24
2017-03-31T05:00:52.213Z,1015.24
2017-03-31T05:01:57.720Z,1015.25
2017-03-31T05:02:52.090Z,1015.25
2017-03-31T05:03:52.032Z,1015.23
2017-03-31T05:04:51.965Z,1015.28
2017-03-31T05:05:51.904Z,1015.26
2017-03-31T05:06:51.842Z,1015.3
2017-03-31T05:07:51.779Z,1015.22
2017-03-31T05:08:51.717Z,1015.25
2017-03-31T05:09:51.656Z,1015.28
2017-03-31T05:10:51.594Z,1015.25
2017-03-31T05:11:51.531Z,1015.25
2017-03-31T05:12:51.470Z,1015.27
2017-03-31T05:13:51.407Z,1015.25
2017-03-31T05:14:51.345Z,1015.24
2017-03-31T05:15:51.283Z,1015.28
2017-03-31T05:16:51.222Z,1015.26
2017-03-31T05:17:51.159Z,1015.27
2017-03-31T05:18:51.097Z,1015.27
2017-03-31T05:19:51.035Z,1015.29
2017-03-31T05:20:50.973Z,1015.26
2017-03-31T05:21:50.913Z,1015.24
2017-03-31T05:22:50.849Z,1015.29
2017-03-31T05:23:50.793Z,1015.26
2017-03-31T05:24:50.727Z,1015.27
2017-03-31T05:25:50.664Z,1015.27
2017-03-31T05:26:50.602Z,1015.26
2017-03-31T05:27:50.540Z,1015.26
2017-03-31T05:28:50.477Z,1015.23
2017-03-31T05:29:50.416Z,1015.25
2017-03-31T05:30:50.354Z,1015.25
2017-03-31T05:31:50.292Z,1015.28
2017-03-31T05:32:50.229Z,1015.28
2017-03-31T05:33:50.167Z,1015.27
2017-03-31T05:34:50.107Z,1015.23
2017-03-31T05:35:50.044Z,1015.26
2017-03-31T05:36:49.984Z,1015.27
2017-03-31T05:37:49.919Z,1015.3
2017-03-31T05:38:49.859Z,1015.23
2017-03-31T05:39:49.795Z,1015.26
2017-03-31T05:40:49.733Z,1015.27
2017-03-31T05:41:49.671Z,1015.24
2017-03-31T05:42:49.609Z,1015.22
2017-03-31T05:43:49.547Z,1015.21
2017-03-31T05:44:49.485Z,1015.22
2017-03-31T05:45:49.424Z,1015.22
2017-03-31T05:46:49.364Z,1015.21
2017-03-31T05:47:49.302Z,1015.22
2017-03-31T05:48:49.237Z,1015.22
2017-03-31T05:49:49.175Z,1015.17
2017-03-31T05:50:49.112Z,1015.21
2017-03-31T05:51:49.051Z,1015.2
2017-03-31T05:52:48.993Z,1015.18
2017-03-31T05:53:48.928Z,1015.18
2017-03-31T05:54:48.865Z,1015.2
2017-03-31T05:55:48.803Z,1015.19
2017-03-31T05:56:48.741Z,1015.18
2017-03-31T05:57:48.679Z,1015.17
2017-03-31T05:58:48.617Z,1015.14
2017-03-31T05:59:48.555Z,1015.19
2017-03-31T06:00:48.494Z,1015.2
2017-03-31T06:01:48.431Z,1015.15
2017-03-31T06:02:48.369Z,1015.15
2017-03-31T06:03:48.307Z,1015.16
2017-03-31T06:04:48.246Z,1015.18
2017-03-31T06:05:48.181Z,1015.14
2017-03-31T06:06:48.121Z,1015.1
2017-03-31T06:07:48.061Z,1015.13
2017-03-31T06:08:47.997Z,1015.14
2017-03-31T06:09:47.935Z,1015.11
2017-03-31T06:10:47.873Z,1015.05
2017-03-31T06:11:47.813Z,1015.03
2017-03-31T06:12:47.749Z,1015.04
2017-03-31T06:13:47.687Z,1015.08
2017-03-31T06:14:47.625Z,1015.03
2017-03-31T06:15:47.563Z,1015.06
2017-03-31T06:16:47.501Z,1015
2017-03-31T06:17:47.440Z,1015.03
2017-03-31T06:18:47.410Z,1015
2017-03-31T06:19:47.315Z,1015.04
2017-03-31T06:20:47.254Z,1015.01
2017-03-31T06:21:47.193Z,1015.07
2017-03-31T06:22:47.130Z,1015.02
2017-03-31T06:23:47.068Z,1015.03
2017-03-31T06:24:47.007Z,1015.01
2017-03-31T06:25:46.944Z,1015
2017-03-31T06:26:46.883Z,1014.98
2017-03-31T06:27:46.819Z,1015.01
2017-03-31T06:28:46.768Z,1014.99
2017-03-31T06:29:46.696Z,1014.98
2017-03-31T06:30:46.985Z,1015
2017-03-31T06:31:46.580Z,1014.99
2017-03-31T06:32:46.586Z,1015
2017-03-31T06:33:46.448Z,1015
2017-03-31T06:34:46.386Z,1015
2017-03-31T06:35:46.323Z,1015.02
2017-03-31T06:36:46.270Z,1014.99
2017-03-31T06:37:46.200Z,1015.01
2017-03-31T06:38:46.137Z,1014.98
2017-03-31T06:39:46.075Z,1014.98
2017-03-31T06:40:46.014Z,1015.01
2017-03-31T06:41:45.951Z,1014.96
2017-03-31T06:42:45.890Z,1014.98
2017-03-31T06:43:45.828Z,1014.97
2017-03-31T06:44:45.766Z,1014.97
2017-03-31T06:45:45.703Z,1014.96
2017-03-31T06:46:45.667Z,1014.96
2017-03-31T06:47:45.588Z,1014.94
2017-03-31T06:48:45.519Z,1014.93
2017-03-31T06:49:45.455Z,1014.94
2017-03-31T06:50:45.393Z,1014.91
2017-03-31T06:51:45.331Z,1014.92
2017-03-31T06:52:45.269Z,1014.87
2017-03-31T06:53:45.207Z,1014.87
2017-03-31T06:54:45.145Z,1014.88
2017-03-31T06:55:45.084Z,1014.88
2017-03-31T06:56:45.020Z,1014.86
2017-03-31T06:57:44.959Z,1014.81
2017-03-31T06:58:44.898Z,1014.86
2017-03-31T06:59:44.836Z,1014.84
2017-03-31T07:00:44.773Z,1014.83
2017-03-31T07:01:44.711Z,1014.83
2017-03-31T07:02:44.650Z,1014.8
2017-03-31T07:03:44.586Z,1014.82
2017-03-31T07:04:44.525Z,1014.84
2017-03-31T07:05:44.464Z,1014.84
2017-03-31T07:06:44.401Z,1014.83
2017-03-31T07:07:44.347Z,1014.84
2017-03-31T07:08:44.277Z,1014.84
2017-03-31T07:09:44.215Z,1014.84
2017-03-31T07:10:44.153Z,1014.85
2017-03-31T07:11:44.092Z,1014.87
2017-03-31T07:12:44.030Z,1014.78
2017-03-31T07:13:43.968Z,1014.8
2017-03-31T07:14:43.906Z,1014.78
2017-03-31T07:15:43.843Z,1014.81
2017-03-31T07:16:43.783Z,1014.81
2017-03-31T07:17:43.721Z,1014.79
2017-03-31T07:18:43.696Z,1014.78
2017-03-31T07:19:43.597Z,1014.79
2017-03-31T07:20:43.535Z,1014.77
2017-03-31T07:21:43.474Z,1014.77
2017-03-31T07:22:43.409Z,1014.77
2017-03-31T07:23:43.349Z,1014.76
2017-03-31T07:24:43.287Z,1014.75
2017-03-31T07:25:43.225Z,1014.72
2017-03-31T07:26:43.163Z,1014.73
2017-03-31T07:27:43.101Z,1014.7
2017-03-31T07:28:43.040Z,1014.7
2017-03-31T07:29:42.978Z,1014.68
2017-03-31T07:30:42.916Z,1014.68
2017-03-31T07:31:42.854Z,1014.68
2017-03-31T07:32:42.793Z,1014.66
2017-03-31T07:33:42.731Z,1014.63
2017-03-31T07:34:42.670Z,1014.64
2017-03-31T07:35:42.607Z,1014.66
2017-03-31T07:36:42.544Z,1014.61
2017-03-31T07:37:42.486Z,1014.64
2017-03-31T07:38:42.422Z,1014.66
2017-03-31T07:39:42.361Z,1014.64
2017-03-31T07:40:42.298Z,1014.58
2017-03-31T07:41:42.236Z,1014.64
2017-03-31T07:42:42.274Z,1014.68
2017-03-31T07:43:42.116Z,1014.62
2017-03-31T07:44:42.057Z,1014.64
2017-03-31T07:45:41.990Z,1014.65
2017-03-31T07:46:41.928Z,1014.68
2017-03-31T07:47:41.866Z,1014.64
2017-03-31T07:48:41.803Z,1014.6
2017-03-31T07:49:41.743Z,1014.61
2017-03-31T07:50:41.682Z,1014.59
2017-03-31T07:51:41.619Z,1014.62
2017-03-31T07:52:41.557Z,1014.57
2017-03-31T07:53:41.496Z,1014.6
2017-03-31T07:54:41.435Z,1014.59
2017-03-31T07:55:41.391Z,1014.56
2017-03-31T07:56:41.311Z,1014.59
2017-03-31T07:57:41.249Z,1014.58
2017-03-31T07:58:41.188Z,1014.56
2017-03-31T07:59:41.126Z,1014.52
2017-03-31T08:00:41.065Z,1014.47
2017-03-31T08:01:41.003Z,1014.51
2017-03-31T08:02:40.941Z,1014.48
2017-03-31T08:03:40.880Z,1014.49
2017-03-31T08:04:40.819Z,1014.47
2017-03-31T08:05:40.756Z,1014.45
2017-03-31T08:06:40.695Z,1014.46
2017-03-31T08:07:40.633Z,1014.47
2017-03-31T08:08:40.572Z,1014.45
2017-03-31T08:09:40.509Z,1014.44
2017-03-31T08:10:40.453Z,1014.45
2017-03-31T08:11:40.394Z,1014.44
2017-03-31T08:12:40.334Z,1014.44
2017-03-31T08:13:40.272Z,1014.47
2017-03-31T08:14:40.203Z,1014.49
2017-03-31T08:15:40.139Z,1014.49
2017-03-31T08:16:40.076Z,1014.42
2017-03-31T08:17:40.015Z,1014.47
2017-03-31T08:18:39.957Z,1014.44
2017-03-31T08:19:39.892Z,1014.44
2017-03-31T08:20:39.841Z,1014.43
2017-03-31T08:21:39.778Z,1014.41
2017-03-31T08:22:39.707Z,1014.37
2017-03-31T08:23:39.645Z,1014.37
2017-03-31T08:24:39.593Z,1014.37
2017-03-31T08:25:39.532Z,1014.39
2017-03-31T08:26:39.470Z,1014.36
2017-03-31T08:27:39.398Z,1014.36
2017-03-31T08:28:39.335Z,1014.39
2017-03-31T08:29:39.275Z,1014.42
2017-03-31T08:30:39.223Z,1014.42
2017-03-31T08:31:39.161Z,1014.39
2017-03-31T08:32:39.089Z,1014.33
2017-03-31T08:33:39.027Z,1014.36
2017-03-31T08:34:38.967Z,1014.34
2017-03-31T08:35:38.913Z,1014.34
2017-03-31T08:36:38.849Z,1014.34
2017-03-31T08:37:38.781Z,1014.34
2017-03-31T08:38:38.717Z,1014.33
2017-03-31T08:39:38.657Z,1014.32
2017-03-31T08:40:38.594Z,1014.29
2017-03-31T08:41:38.550Z,1014.31
2017-03-31T08:42:38.474Z,1014.29
2017-03-31T08:43:38.409Z,1014.28
2017-03-31T08:44:38.350Z,1014.27
2017-03-31T08:45:38.286Z,1014.27
2017-03-31T08:46:38.223Z,1014.26
2017-03-31T08:47:38.162Z,1014.24
2017-03-31T08:48:38.100Z,1014.25
2017-03-31T08:49:38.038Z,1014.24
2017-03-31T08:50:37.977Z,1014.26
2017-03-31T08:51:37.917Z,1014.23
2017-03-31T08:52:37.864Z,1014.2
2017-03-31T08:53:37.792Z,1014.22
2017-03-31T08:54:37.731Z,1014.21
2017-03-31T08:55:37.668Z,1014.2
2017-03-31T08:56:37.607Z,1014.21
2017-03-31T08:57:37.544Z,1014.23
2017-03-31T08:58:37.482Z,1014.21
2017-03-31T08:59:37.422Z,1014.19
2017-03-31T09:00:37.358Z,1014.21
2017-03-31T09:01:37.297Z,1014.19
2017-03-31T09:02:37.237Z,1014.19
2017-03-31T09:03:37.174Z,1014.19
2017-03-31T09:04:37.111Z,1014.14
2017-03-31T09:05:37.051Z,1014.14
2017-03-31T09:06:36.989Z,1014.14
2017-03-31T09:07:36.927Z,1014.15
2017-03-31T09:08:36.868Z,1014.13
2017-03-31T09:09:36.803Z,1014.12
2017-03-31T09:10:36.743Z,1014.11
2017-03-31T09:11:36.682Z,1014.1
2017-03-31T09:12:36.617Z,1014.11
2017-03-31T09:13:36.555Z,1014.11
2017-03-31T09:14:36.495Z,1014.07
2017-03-31T09:15:36.431Z,1014.05
2017-03-31T09:16:36.371Z,1014.04
2017-03-31T09:17:36.310Z,1014.01
2017-03-31T09:18:36.247Z,1014.02
2017-03-31T09:19:36.185Z,1014
2017-03-31T09:20:36.124Z,1014.02
2017-03-31T09:21:36.063Z,1014.01
2017-03-31T09:22:35.999Z,1014.03
2017-03-31T09:23:35.940Z,1014
2017-03-31T09:24:35.876Z,1014
2017-03-31T09:25:35.814Z,1013.96
2017-03-31T09:26:35.752Z,1013.96
2017-03-31T09:27:35.692Z,1013.98
2017-03-31T09:28:35.629Z,1013.96
2017-03-31T09:29:35.568Z,1013.98
2017-03-31T09:30:35.507Z,1013.97
2017-03-31T09:31:35.445Z,1013.96
2017-03-31T09:32:35.382Z,1013.96
2017-03-31T09:33:35.320Z,1013.91
2017-03-31T09:34:35.259Z,1013.94
2017-03-31T09:35:35.197Z,1013.89
2017-03-31T09:36:35.137Z,1013.84
2017-03-31T09:37:35.075Z,1013.86
2017-03-31T09:38:35.012Z,1013.83
2017-03-31T09:39:34.951Z,1013.79
2017-03-31T09:40:35.138Z,1013.78
2017-03-31T09:41:34.827Z,1013.81
2017-03-31T09:42:34.767Z,1013.77
2017-03-31T09:43:34.703Z,1013.78
2017-03-31T09:44:34.641Z,1013.76
2017-03-31T09:45:34.580Z,1013.77
2017-03-31T09:46:34.518Z,1013.73
2017-03-31T09:47:34.456Z,1013.74
2017-03-31T09:48:34.395Z,1013.71
2017-03-31T09:49:34.332Z,1013.67
2017-03-31T09:50:34.271Z,1013.68
2017-03-31T09:51:34.210Z,1013.71
2017-03-31T09:52:34.147Z,1013.69
2017-03-31T09:53:34.085Z,1013.75
2017-03-31T09:54:34.025Z,1013.7
2017-03-31T09:55:33.962Z,1013.66
2017-03-31T09:56:33.901Z,1013.67
2017-03-31T09:57:33.839Z,1013.61
2017-03-31T09:58:33.777Z,1013.62
2017-03-31T09:59:33.715Z,1013.66
2017-03-31T10:00:33.653Z,1013.61
2017-03-31T10:01:33.602Z,1013.58
2017-03-31T10:02:33.530Z,1013.57
2017-03-31T10:03:33.469Z,1013.56
2017-03-31T10:04:33.406Z,1013.56
2017-03-31T10:05:33.345Z,1013.55
2017-03-31T10:06:33.284Z,1013.49
2017-03-31T10:07:33.224Z,1013.47
2017-03-31T10:08:33.194Z,1013.45
2017-03-31T10:09:33.117Z,1013.46
2017-03-31T10:10:33.047Z,1013.44
2017-03-31T10:11:32.978Z,1013.41
2017-03-31T10:12:32.917Z,1013.38
2017-03-31T10:13:32.853Z,1013.43
2017-03-31T10:14:32.791Z,1013.38
2017-03-31T10:15:32.733Z,1013.41
2017-03-31T10:16:32.669Z,1013.36
2017-03-31T10:17:32.607Z,1013.36
2017-03-31T10:18:32.544Z,1013.3
2017-03-31T10:19:32.497Z,1013.29
2017-03-31T10:20:32.423Z,1013.27
2017-03-31T10:21:32.362Z,1013.29
2017-03-31T10:22:32.299Z,1013.25
2017-03-31T10:23:32.237Z,1013.26
2017-03-31T10:24:32.176Z,1013.25
2017-03-31T10:25:32.114Z,1013.19
2017-03-31T10:26:32.064Z,1013.17
2017-03-31T10:27:31.993Z,1013.18
2017-03-31T10:28:31.933Z,1013.19
2017-03-31T10:29:31.868Z,1013.17
2017-03-31T10:30:31.810Z,1013.17
2017-03-31T10:31:31.744Z,1013.19
2017-03-31T10:32:31.684Z,1013.18
2017-03-31T10:33:31.621Z,1013.16
2017-03-31T10:34:31.561Z,1013.12
2017-03-31T10:35:31.504Z,1013.13
2017-03-31T10:36:31.438Z,1013.14
2017-03-31T10:37:31.382Z,1013.14
2017-03-31T10:38:31.317Z,1013.12
2017-03-31T10:39:31.254Z,1013.07
2017-03-31T10:40:31.192Z,1013.09
2017-03-31T10:41:31.132Z,1013.04
2017-03-31T10:42:31.069Z,1013.02
2017-03-31T10:43:31.007Z,1013.02
2017-03-31T10:44:30.944Z,1013.01
2017-03-31T10:45:30.886Z,1012.95
2017-03-31T10:46:30.823Z,1012.98
2017-03-31T10:47:30.761Z,1012.95
2017-03-31T10:48:30.701Z,1012.88
2017-03-31T10:49:30.638Z,1012.89
2017-03-31T10:50:30.577Z,1012.88
2017-03-31T10:51:30.514Z,1012.84
2017-03-31T10:52:30.455Z,1012.82
2017-03-31T10:53:30.393Z,1012.81
2017-03-31T10:54:30.331Z,1012.81
2017-03-31T10:55:30.269Z,1012.8
2017-03-31T10:56:30.207Z,1012.78
2017-03-31T10:57:30.146Z,1012.74
2017-03-31T10:58:30.084Z,1012.73
2017-03-31T10:59:30.022Z,1012.72
2017-03-31T11:00:29.961Z,1012.73
2017-03-31T11:01:30.121Z,1012.67
2017-03-31T11:02:29.842Z,1012.66
2017-03-31T11:03:29.777Z,1012.67
2017-03-31T11:04:29.714Z,1012.58
2017-03-31T11:05:29.654Z,1012.64
2017-03-31T11:06:29.594Z,1012.63
2017-03-31T11:07:29.531Z,1012.61
2017-03-31T11:08:29.469Z,1012.59
2017-03-31T11:09:29.409Z,1012.55
2017-03-31T11:10:29.346Z,1012.58
2017-03-31T11:11:29.286Z,1012.55
2017-03-31T11:12:29.211Z,1012.5
2017-03-31T11:13:29.145Z,1012.49
2017-03-31T11:14:29.093Z,1012.47
2017-03-31T11:15:29.020Z,1012.46
2017-03-31T11:16:28.972Z,1012.44
2017-03-31T11:17:28.907Z,1012.45
2017-03-31T11:18:28.886Z,1012.43
2017-03-31T11:19:28.784Z,1012.47
2017-03-31T11:20:28.722Z,1012.41
2017-03-31T11:21:28.658Z,1012.37
2017-03-31T11:22:28.591Z,1012.31
2017-03-31T11:23:28.528Z,1012.32
2017-03-31T11:24:28.475Z,1012.34
2017-03-31T11:25:28.415Z,1012.3
2017-03-31T11:26:28.343Z,1012.29
2017-03-31T11:27:28.283Z,1012.29
2017-03-31T11:28:28.233Z,1012.21
2017-03-31T11:29:28.158Z,1012.17
2017-03-31T11:30:28.105Z,1012.17
2017-03-31T11:31:28.051Z,1012.2
2017-03-31T11:32:27.981Z,1012.16
2017-03-31T11:33:27.921Z,1012.15
2017-03-31T11:34:27.847Z,1012.14
2017-03-31T11:35:28.046Z,1012.17
2017-03-31T11:36:27.736Z,1012.1
2017-03-31T11:37:27.663Z,1012.06
2017-03-31T11:38:27.602Z,1012.1
2017-03-31T11:39:27.551Z,1012.07
2017-03-31T11:40:27.829Z,1012.04
2017-03-31T11:41:27.441Z,1012.05
2017-03-31T11:42:27.355Z,1012
2017-03-31T11:43:27.296Z,1012.01
2017-03-31T11:44:27.265Z,1012.02
2017-03-31T11:45:27.418Z,1011.94
2017-03-31T11:46:27.108Z,1011.97
2017-03-31T11:47:27.046Z,1011.94
2017-03-31T11:48:26.983Z,1011.94
2017-03-31T11:49:26.927Z,1011.94
2017-03-31T11:50:26.871Z,1011.89
2017-03-31T11:51:26.812Z,1011.89
2017-03-31T11:52:26.750Z,1011.9
2017-03-31T11:53:26.684Z,1011.86
2017-03-31T11:54:26.623Z,1011.85
2017-03-31T11:55:26.556Z,1011.85
2017-03-31T11:56:26.499Z,1011.86
2017-03-31T11:57:26.444Z,1011.84
2017-03-31T11:58:26.388Z,1011.85
2017-03-31T11:59:26.303Z,1011.84
2017-03-31T12:00:26.253Z,1011.83
2017-03-31T12:01:26.181Z,1011.78
2017-03-31T12:02:26.122Z,1011.8
2017-03-31T12:03:26.057Z,1011.74
2017-03-31T12:04:26.005Z,1011.73
2017-03-31T12:05:25.984Z,1011.68
2017-03-31T12:06:25.873Z,1011.7
2017-03-31T12:07:25.812Z,1011.67
2017-03-31T12:08:25.752Z,1011.63